Time;durP1;ratioP1;P1;durP2;ratioP2;P2;SDS_P1;SDS_P2;PMS_P1;PMS_P2;Temp;Humidity;BMP_temperature;BMP_pressure;BME280_temperature;BME280_humidity;BME280_pressure;Samples;Min_cycle;Max_cycle;Signal;HPM_P1;HPM_P2
2022/11/30 00:01:12;;;;;;;37.58;11.57;;;;;;;;;;6183028;28;20048;-85
2022/11/30 00:04:14;;;;;;;47.47;14.23;;;;;;;;;;6183439;28;20050;-84
2022/11/30 00:07:16;;;;;;;67.63;18.58;;;;;;;;;;6197392;28;20046;-85
2022/11/30 00:10:17;;;;;;;77.60;23.02;;;;;;;;;;6199979;28;20046;-85
2022/11/30 00:13:19;;;;;;;58.17;17.25;;;;;;;;;;6187440;28;20114;-85
2022/11/30 00:16:21;;;;;;;46.50;13.23;;;;;;;;;;6193735;28;20046;-84
2022/11/30 00:19:23;;;;;;;45.22;12.13;;;;;;;;;;6197228;28;20061;-84
2022/11/30 00:22:24;;;;;;;43.83;12.18;;;;;;;;;;6179754;28;20070;-84
2022/11/30 00:25:26;;;;;;;65.63;14.02;;;;;;;;;;6197850;28;20110;-83
2022/11/30 00:28:30;;;;;;;50.08;13.52;;;;;;;;;;6199606;28;20142;-83
2022/11/30 00:31:32;;;;;;;51.03;13.20;;;;;;;;;;6162921;28;20050;-84
2022/11/30 00:34:34;;;;;;;48.13;14.48;;;;;;;;;;6181862;28;20098;-83
2022/11/30 00:37:35;;;;;;;45.08;12.38;;;;;;;;;;6198930;28;20110;-82
2022/11/30 00:40:37;;;;;;;49.72;13.15;;;;;;;;;;6199667;28;20100;-83
2022/11/30 00:43:39;;;;;;;52.08;13.50;;;;;;;;;;6200923;28;20058;-83
2022/11/30 00:46:41;;;;;;;52.10;12.90;;;;;;;;;;6180361;28;20098;-83
2022/11/30 00:49:42;;;;;;;48.88;11.43;;;;;;;;;;6199883;28;20066;-83
2022/11/30 00:52:44;;;;;;;48.38;12.00;;;;;;;;;;6181221;28;20049;-84
2022/11/30 00:55:46;;;;;;;55.78;15.07;;;;;;;;;;6198333;28;20053;-84
2022/11/30 00:58:48;;;;;;;51.67;12.98;;;;;;;;;;6170447;28;20232;-83
2022/11/30 01:01:52;;;;;;;48.47;12.57;;;;;;;;;;6200320;28;20125;-83
2022/11/30 01:04:55;;;;;;;53.63;13.18;;;;;;;;;;6181673;28;20053;-84
2022/11/30 01:07:59;;;;;;;56.17;16.50;;;;;;;;;;6182609;28;20559;-84
2022/11/30 01:11:17;;;;;;;46.95;13.82;;;;;;;;;;6203170;28;20042;-84
2022/11/30 01:14:18;;;;;;;41.10;11.98;;;;;;;;;;6200815;28;20046;-84
2022/11/30 01:17:20;;;;;;;41.65;9.90;;;;;;;;;;6196640;28;20050;-85
2022/11/30 01:20:23;;;;;;;48.50;10.25;;;;;;;;;;6201192;28;20045;-84
2022/11/30 01:23:24;;;;;;;48.60;11.48;;;;;;;;;;6181425;28;20057;-84
2022/11/30 01:26:26;;;;;;;43.72;11.73;;;;;;;;;;6197485;28;20123;-84
2022/11/30 01:29:28;;;;;;;41.40;10.75;;;;;;;;;;6198945;28;20046;-83
2022/11/30 01:32:29;;;;;;;45.22;11.88;;;;;;;;;;6189098;28;20102;-84
2022/11/30 01:35:31;;;;;;;41.97;10.40;;;;;;;;;;6199674;28;20135;-83
2022/11/30 01:38:44;;;;;;;40.13;11.23;;;;;;;;;;6183513;28;20052;-83
2022/11/30 01:41:46;;;;;;;37.72;10.73;;;;;;;;;;6199586;28;20089;-83
2022/11/30 01:44:54;;;;;;;37.63;9.48;;;;;;;;;;6198073;28;20052;-83
2022/11/30 01:47:56;;;;;;;43.63;11.60;;;;;;;;;;6202961;28;20050;-83
2022/11/30 01:50:58;;;;;;;51.95;11.32;;;;;;;;;;6188449;28;20038;-83
2022/11/30 01:54:01;;;;;;;44.50;11.50;;;;;;;;;;6187161;28;20050;-84
2022/11/30 01:57:15;;;;;;;45.05;10.63;;;;;;;;;;6181353;28;20062;-84
2022/11/30 02:00:18;;;;;;;43.20;11.43;;;;;;;;;;6180725;28;20233;-84
2022/11/30 02:03:42;;;;;;;40.60;11.23;;;;;;;;;;6186576;28;20053;-84
2022/11/30 02:06:46;;;;;;;43.33;11.48;;;;;;;;;;6186760;28;20053;-84
2022/11/30 02:09:47;;;;;;;49.60;11.57;;;;;;;;;;6189863;28;20116;-84
2022/11/30 02:13:07;;;;;;;44.60;12.20;;;;;;;;;;6179837;28;20050;-84
2022/11/30 02:16:18;;;;;;;43.88;11.75;;;;;;;;;;6190490;28;20050;-85
2022/11/30 02:19:58;;;;;;;55.17;11.80;;;;;;;;;;6176439;28;20065;-84
2022/11/30 02:23:27;;;;;;;39.65;11.95;;;;;;;;;;6193380;28;20113;-84
2022/11/30 02:26:38;;;;;;;41.35;11.05;;;;;;;;;;6192583;28;20527;-84
2022/11/30 02:29:48;;;;;;;39.22;11.30;;;;;;;;;;6179104;28;20050;-84
2022/11/30 02:32:59;;;;;;;52.40;14.52;;;;;;;;;;6181359;28;20054;-83
2022/11/30 02:36:02;;;;;;;47.70;12.50;;;;;;;;;;6195534;28;20062;-83
2022/11/30 02:39:04;;;;;;;43.33;12.38;;;;;;;;;;6177983;28;20105;-84
2022/11/30 02:42:13;;;;;;;43.22;12.98;;;;;;;;;;6198229;28;20043;-84
2022/11/30 02:45:17;;;;;;;44.03;12.48;;;;;;;;;;6195226;28;20065;-83
2022/11/30 02:48:51;;;;;;;44.05;12.65;;;;;;;;;;6196073;28;20061;-83
2022/11/30 02:51:55;;;;;;;44.30;12.27;;;;;;;;;;6194129;28;20057;-84
2022/11/30 02:55:01;;;;;;;37.15;10.77;;;;;;;;;;6199163;28;20651;-84
2022/11/30 02:58:04;;;;;;;34.55;12.35;;;;;;;;;;6196113;28;20185;-83
2022/11/30 03:01:06;;;;;;;43.90;12.70;;;;;;;;;;6196909;28;20116;-83
2022/11/30 03:04:08;;;;;;;55.10;12.10;;;;;;;;;;6179654;28;20077;-84
2022/11/30 03:07:10;;;;;;;45.00;11.82;;;;;;;;;;6179064;28;20061;-84
2022/11/30 03:10:12;;;;;;;50.55;14.15;;;;;;;;;;6180334;28;20081;-84
2022/11/30 03:13:13;;;;;;;44.33;12.73;;;;;;;;;;6195320;28;20069;-83
2022/11/30 03:16:15;;;;;;;50.15;12.85;;;;;;;;;;6181804;28;20109;-83
2022/11/30 03:19:17;;;;;;;46.00;12.55;;;;;;;;;;6198100;28;20042;-84
2022/11/30 03:22:19;;;;;;;55.05;13.25;;;;;;;;;;6198074;28;20101;-84
2022/11/30 03:25:20;;;;;;;44.63;12.60;;;;;;;;;;6197201;28;20068;-84
2022/11/30 03:28:22;;;;;;;55.22;14.00;;;;;;;;;;6172707;28;20053;-84
2022/11/30 03:31:24;;;;;;;51.55;14.68;;;;;;;;;;6197727;28;20042;-84
2022/11/30 03:34:26;;;;;;;50.15;12.90;;;;;;;;;;6195543;28;20052;-84
2022/11/30 03:37:28;;;;;;;54.13;13.85;;;;;;;;;;6174102;28;20093;-85
2022/11/30 03:40:30;;;;;;;45.92;14.20;;;;;;;;;;6195399;28;20449;-85
2022/11/30 03:43:32;;;;;;;53.40;13.75;;;;;;;;;;6195595;28;20420;-84
2022/11/30 03:46:33;;;;;;;50.13;12.55;;;;;;;;;;6197447;28;20054;-85
2022/11/30 03:49:35;;;;;;;48.10;12.32;;;;;;;;;;6176112;28;20050;-86
2022/11/30 03:52:37;;;;;;;37.65;10.20;;;;;;;;;;6172641;28;20050;-86
2022/11/30 03:55:38;;;;;;;44.88;12.07;;;;;;;;;;6185432;28;20137;-86
2022/11/30 03:58:41;;;;;;;47.10;12.55;;;;;;;;;;6185589;28;20165;-87
2022/11/30 04:01:42;;;;;;;45.15;11.57;;;;;;;;;;6188668;28;20491;-86
2022/11/30 04:04:44;;;;;;;41.75;10.90;;;;;;;;;;6189893;28;20051;-87
2022/11/30 04:07:46;;;;;;;44.00;12.88;;;;;;;;;;6187845;28;20054;-86
2022/11/30 04:10:52;;;;;;;49.30;12.60;;;;;;;;;;6174036;28;20050;-86
2022/11/30 04:13:53;;;;;;;53.65;13.40;;;;;;;;;;6190688;28;20077;-84
2022/11/30 04:16:56;;;;;;;52.45;13.32;;;;;;;;;;6194432;28;20088;-85
2022/11/30 04:19:58;;;;;;;55.65;12.60;;;;;;;;;;6180328;28;20066;-85
2022/11/30 04:22:59;;;;;;;42.80;12.02;;;;;;;;;;6170211;28;20047;-85
2022/11/30 04:26:06;;;;;;;44.53;11.40;;;;;;;;;;6186170;28;20042;-86
2022/11/30 04:29:08;;;;;;;42.38;12.23;;;;;;;;;;6189216;28;20047;-86
2022/11/30 04:32:10;;;;;;;43.78;11.27;;;;;;;;;;6189923;28;20065;-86
2022/11/30 04:35:11;;;;;;;45.20;11.35;;;;;;;;;;6171641;28;20168;-86
2022/11/30 04:38:13;;;;;;;38.17;11.65;;;;;;;;;;6186678;28;20129;-86
2022/11/30 04:41:15;;;;;;;47.70;12.73;;;;;;;;;;6177307;28;20425;-85
2022/11/30 04:44:16;;;;;;;40.55;11.07;;;;;;;;;;6188017;28;20038;-86
2022/11/30 04:47:18;;;;;;;39.03;10.88;;;;;;;;;;6190838;28;20525;-86
2022/11/30 04:50:20;;;;;;;37.40;10.45;;;;;;;;;;6177481;28;20069;-86
2022/11/30 04:53:24;;;;;;;38.20;10.18;;;;;;;;;;6191102;28;20181;-86
2022/11/30 04:56:26;;;;;;;40.67;11.95;;;;;;;;;;6175651;28;20058;-86
2022/11/30 04:59:28;;;;;;;41.60;11.85;;;;;;;;;;6189873;28;20052;-86
2022/11/30 05:02:30;;;;;;;41.45;12.18;;;;;;;;;;6173909;28;20057;-85
2022/11/30 05:05:31;;;;;;;40.28;11.65;;;;;;;;;;6188901;28;20118;-86
2022/11/30 05:08:33;;;;;;;34.17;10.43;;;;;;;;;;6174147;28;20069;-85
2022/11/30 05:11:35;;;;;;;39.33;10.15;;;;;;;;;;6188346;28;20046;-86
2022/11/30 05:14:37;;;;;;;41.38;9.85;;;;;;;;;;6173666;28;20049;-84
2022/11/30 05:17:38;;;;;;;44.70;11.98;;;;;;;;;;6172001;28;20596;-84
2022/11/30 05:20:40;;;;;;;39.67;12.25;;;;;;;;;;6186536;28;20046;-86
2022/11/30 05:23:42;;;;;;;32.15;9.98;;;;;;;;;;6171801;28;20061;-86
2022/11/30 05:26:44;;;;;;;41.00;11.80;;;;;;;;;;6190370;28;20046;-86
2022/11/30 05:29:45;;;;;;;35.20;9.55;;;;;;;;;;6190891;28;20197;-85
2022/11/30 05:32:47;;;;;;;37.50;10.40;;;;;;;;;;6190018;28;20156;-86
2022/11/30 05:35:49;;;;;;;43.30;11.60;;;;;;;;;;6189310;28;20042;-85
2022/11/30 05:38:50;;;;;;;36.97;10.07;;;;;;;;;;6173727;28;20058;-86
2022/11/30 05:41:52;;;;;;;59.65;16.13;;;;;;;;;;6173754;28;20045;-85
2022/11/30 05:44:54;;;;;;;45.05;11.48;;;;;;;;;;6193401;28;20073;-85
2022/11/30 05:47:55;;;;;;;50.45;14.35;;;;;;;;;;6172387;28;20053;-86
2022/11/30 05:51:14;;;;;;;44.58;13.32;;;;;;;;;;6188731;28;20054;-86
2022/11/30 05:54:16;;;;;;;40.28;10.57;;;;;;;;;;6174844;28;20077;-86
2022/11/30 05:57:18;;;;;;;38.55;10.95;;;;;;;;;;6174101;28;20051;-86
2022/11/30 06:00:20;;;;;;;41.80;11.00;;;;;;;;;;6189039;28;20038;-86
2022/11/30 06:03:22;;;;;;;43.05;12.13;;;;;;;;;;6189725;28;20153;-86
2022/11/30 06:06:24;;;;;;;41.47;10.13;;;;;;;;;;6185989;28;20137;-84
2022/11/30 06:09:26;;;;;;;39.30;10.13;;;;;;;;;;6188618;28;20050;-85
2022/11/30 06:12:27;;;;;;;43.83;11.68;;;;;;;;;;6187153;28;20045;-85
2022/11/30 06:15:29;;;;;;;50.22;12.07;;;;;;;;;;6171095;28;20042;-85
2022/11/30 06:18:31;;;;;;;53.78;13.50;;;;;;;;;;6185479;28;20042;-84
2022/11/30 06:21:32;;;;;;;45.67;12.52;;;;;;;;;;6166508;28;20054;-85
2022/11/30 06:24:34;;;;;;;55.45;15.63;;;;;;;;;;6185004;28;20042;-85
2022/11/30 06:27:36;;;;;;;45.70;11.57;;;;;;;;;;6181966;28;20492;-85
2022/11/30 06:30:37;;;;;;;41.40;11.70;;;;;;;;;;6166350;28;20058;-84
2022/11/30 06:33:39;;;;;;;41.80;11.85;;;;;;;;;;6192155;28;20061;-83
2022/11/30 06:36:41;;;;;;;47.15;12.55;;;;;;;;;;6162878;28;20070;-84
2022/11/30 06:39:42;;;;;;;46.17;12.07;;;;;;;;;;6196740;28;20057;-84
2022/11/30 06:43:05;;;;;;;50.35;15.20;;;;;;;;;;6198143;28;20050;-84
2022/11/30 06:46:07;;;;;;;45.47;14.00;;;;;;;;;;6196639;28;20378;-84
2022/11/30 06:49:09;;;;;;;51.47;14.35;;;;;;;;;;6198869;28;20058;-84
2022/11/30 06:52:10;;;;;;;52.67;15.02;;;;;;;;;;6196983;28;20555;-84
2022/11/30 06:55:12;;;;;;;70.80;20.55;;;;;;;;;;6196956;28;20101;-84
2022/11/30 06:58:13;;;;;;;62.25;17.73;;;;;;;;;;6183980;28;20054;-84
2022/11/30 07:01:15;;;;;;;56.38;17.15;;;;;;;;;;6179973;28;20363;-83
2022/11/30 07:04:17;;;;;;;53.05;15.50;;;;;;;;;;6199380;28;20117;-85
2022/11/30 07:07:19;;;;;;;47.00;14.60;;;;;;;;;;6194736;28;20048;-84
2022/11/30 07:10:21;;;;;;;49.03;16.55;;;;;;;;;;6182558;28;20065;-85
2022/11/30 07:13:23;;;;;;;43.45;13.88;;;;;;;;;;6195860;28;20769;-84
2022/11/30 07:16:25;;;;;;;49.17;12.90;;;;;;;;;;6197652;28;20054;-84
2022/11/30 07:19:27;;;;;;;49.05;15.18;;;;;;;;;;6196473;28;20790;-84
2022/11/30 07:22:28;;;;;;;42.65;13.15;;;;;;;;;;6196663;28;20050;-84
2022/11/30 07:28:53;;;;;;;43.92;13.68;;;;;;;;;;6194365;28;20057;-84
2022/11/30 07:31:56;;;;;;;62.22;18.38;;;;;;;;;;6197870;28;20137;-82
2022/11/30 07:34:57;;;;;;;61.30;18.20;;;;;;;;;;6178563;28;20043;-82
2022/11/30 07:37:59;;;;;;;54.65;17.60;;;;;;;;;;6179515;28;20058;-84
2022/11/30 07:41:08;;;;;;;51.28;19.33;;;;;;;;;;6181642;28;20058;-83
2022/11/30 07:44:11;;;;;;;53.97;15.18;;;;;;;;;;6196542;28;20110;-84
2022/11/30 07:47:12;;;;;;;39.30;11.90;;;;;;;;;;6168016;28;20054;-82
2022/11/30 07:50:14;;;;;;;40.40;12.63;;;;;;;;;;6194236;28;20355;-83
2022/11/30 07:53:16;;;;;;;46.13;12.50;;;;;;;;;;6191989;28;20056;-83
2022/11/30 07:56:19;;;;;;;35.90;10.55;;;;;;;;;;6177663;28;20042;-83
2022/11/30 07:59:21;;;;;;;39.13;11.30;;;;;;;;;;6194627;28;20639;-83
2022/11/30 08:02:22;;;;;;;46.15;15.25;;;;;;;;;;6192091;28;20061;-85
2022/11/30 08:05:24;;;;;;;39.63;12.32;;;;;;;;;;6196617;28;20177;-85
2022/11/30 08:08:37;;;;;;;37.25;12.15;;;;;;;;;;6193507;28;20073;-85
2022/11/30 08:11:42;;;;;;;36.08;13.02;;;;;;;;;;6175407;28;20116;-85
2022/11/30 08:14:43;;;;;;;40.55;12.90;;;;;;;;;;6176024;28;20085;-85
2022/11/30 08:18:05;;;;;;;38.38;10.93;;;;;;;;;;6175435;28;20129;-85
2022/11/30 08:21:11;;;;;;;37.72;12.20;;;;;;;;;;6188692;28;20046;-85
2022/11/30 08:24:12;;;;;;;36.63;13.07;;;;;;;;;;6177630;28;20047;-84
2022/11/30 08:27:14;;;;;;;42.35;10.40;;;;;;;;;;6174915;28;20148;-84
2022/11/30 08:30:16;;;;;;;42.15;11.88;;;;;;;;;;6177248;28;20781;-85
2022/11/30 08:33:18;;;;;;;39.20;11.73;;;;;;;;;;6186036;28;20663;-84
2022/11/30 08:36:21;;;;;;;48.85;12.73;;;;;;;;;;6175281;28;20134;-84
2022/11/30 08:39:23;;;;;;;37.88;12.10;;;;;;;;;;6175105;28;20064;-83
2022/11/30 08:42:24;;;;;;;38.95;11.45;;;;;;;;;;6177148;28;20123;-82
2022/11/30 08:45:26;;;;;;;40.50;11.32;;;;;;;;;;6194245;28;20065;-83
2022/11/30 08:48:28;;;;;;;52.28;15.10;;;;;;;;;;6197209;28;20058;-83
2022/11/30 08:51:30;;;;;;;52.70;15.13;;;;;;;;;;6196892;28;20122;-82
2022/11/30 08:54:54;;;;;;;46.60;12.60;;;;;;;;;;6199068;28;20069;-82
2022/11/30 08:57:57;;;;;;;44.95;12.52;;;;;;;;;;6196264;28;20069;-84
2022/11/30 09:01:08;;;;;;;41.90;12.00;;;;;;;;;;6197651;28;20070;-84
2022/11/30 09:04:10;;;;;;;37.83;12.02;;;;;;;;;;6198986;28;20449;-84
2022/11/30 09:07:12;;;;;;;36.95;11.45;;;;;;;;;;6198366;28;20054;-84
2022/11/30 09:10:13;;;;;;;45.10;10.50;;;;;;;;;;6201463;28;20062;-85
2022/11/30 09:13:15;;;;;;;40.38;11.63;;;;;;;;;;6198401;28;20114;-84
2022/11/30 09:16:19;;;;;;;33.72;9.93;;;;;;;;;;6200182;28;20054;-85
2022/11/30 09:19:20;;;;;;;27.42;9.05;;;;;;;;;;6187163;28;20083;-84
2022/11/30 09:22:23;;;;;;;28.48;8.75;;;;;;;;;;6182601;28;20057;-83
2022/11/30 09:25:24;;;;;;;29.63;8.82;;;;;;;;;;6178033;28;20861;-84
2022/11/30 09:28:29;;;;;;;27.08;9.52;;;;;;;;;;6196595;28;20046;-84
2022/11/30 09:31:31;;;;;;;34.10;10.82;;;;;;;;;;6163244;28;20553;-84
2022/11/30 09:34:33;;;;;;;29.35;10.35;;;;;;;;;;6185067;28;20077;-83
2022/11/30 09:37:34;;;;;;;26.88;10.13;;;;;;;;;;6195649;28;20045;-83
2022/11/30 09:40:39;;;;;;;22.55;8.68;;;;;;;;;;6196594;28;20110;-85
2022/11/30 09:43:59;;;;;;;28.83;9.40;;;;;;;;;;6198203;28;20109;-84
2022/11/30 09:47:07;;;;;;;24.88;7.65;;;;;;;;;;6199496;28;20422;-84
2022/11/30 09:50:19;;;;;;;25.85;10.45;;;;;;;;;;6185059;28;20050;-84
2022/11/30 09:53:33;;;;;;;24.40;9.02;;;;;;;;;;6198348;28;20050;-84
2022/11/30 09:56:39;;;;;;;26.10;8.68;;;;;;;;;;6194801;28;20057;-84
2022/11/30 09:59:47;;;;;;;31.35;9.27;;;;;;;;;;6183454;28;20121;-84
2022/11/30 10:02:50;;;;;;;22.55;8.27;;;;;;;;;;6182770;28;20114;-84
2022/11/30 10:06:09;;;;;;;26.77;10.50;;;;;;;;;;6199905;28;20050;-84
2022/11/30 10:09:42;;;;;;;23.95;8.00;;;;;;;;;;6198402;28;20078;-83
2022/11/30 10:13:22;;;;;;;22.40;7.93;;;;;;;;;;6185290;28;20057;-83
2022/11/30 10:16:48;;;;;;;21.85;8.02;;;;;;;;;;6195099;28;20054;-84
2022/11/30 10:20:09;;;;;;;21.02;8.05;;;;;;;;;;6197760;28;20046;-85
2022/11/30 10:23:11;;;;;;;20.90;7.03;;;;;;;;;;6179462;28;20062;-84
2022/11/30 10:26:30;;;;;;;22.52;6.97;;;;;;;;;;6181059;28;20085;-83
2022/11/30 10:29:38;;;;;;;22.40;6.72;;;;;;;;;;6199006;28;20047;-85
2022/11/30 10:32:43;;;;;;;25.50;9.02;;;;;;;;;;6196859;28;20322;-84
2022/11/30 10:35:53;;;;;;;24.85;7.93;;;;;;;;;;6196017;28;20521;-83
2022/11/30 10:38:59;;;;;;;25.23;8.52;;;;;;;;;;6200834;28;20497;-83
2022/11/30 10:42:19;;;;;;;20.63;8.57;;;;;;;;;;6182094;28;20050;-84
2022/11/30 10:45:23;;;;;;;16.58;6.47;;;;;;;;;;6197971;28;20546;-83
2022/11/30 10:48:28;;;;;;;;;;;;;;;;;;6183101;28;20056;-83
2022/11/30 10:51:34;;;;;;;19.70;6.30;;;;;;;;;;6196471;28;19917;-84
2022/11/30 10:54:36;;;;;;;25.00;7.70;;;;;;;;;;6198693;28;20061;-84
2022/11/30 10:57:38;;;;;;;23.05;7.40;;;;;;;;;;6198252;28;20077;-84
2022/11/30 11:00:49;;;;;;;21.35;7.65;;;;;;;;;;6181572;28;20042;-83
2022/11/30 11:04:06;;;;;;;20.52;7.07;;;;;;;;;;6198607;28;20082;-83
2022/11/30 11:07:13;;;;;;;23.33;7.75;;;;;;;;;;6194095;28;20054;-84
2022/11/30 11:10:18;;;;;;;23.63;7.35;;;;;;;;;;6199052;28;20101;-83
2022/11/30 11:13:39;;;;;;;23.08;8.60;;;;;;;;;;6163857;28;20046;-84
2022/11/30 11:16:56;;;;;;;21.48;7.28;;;;;;;;;;6196028;28;20529;-84
2022/11/30 11:19:58;;;;;;;22.67;7.78;;;;;;;;;;6168403;28;20073;-82
2022/11/30 11:23:01;;;;;;;19.85;6.90;;;;;;;;;;6195579;28;20042;-84
2022/11/30 11:26:05;;;;;;;22.63;7.22;;;;;;;;;;6196694;28;20073;-84
2022/11/30 11:29:30;;;;;;;22.98;7.68;;;;;;;;;;6197103;28;20060;-84
2022/11/30 11:32:31;;;;;;;20.25;7.38;;;;;;;;;;6197666;28;20043;-85
2022/11/30 11:35:42;;;;;;;21.45;6.78;;;;;;;;;;6181100;28;20081;-83
2022/11/30 11:38:47;;;;;;;25.83;8.10;;;;;;;;;;6194252;28;20106;-84
2022/11/30 11:41:52;;;;;;;19.23;7.15;;;;;;;;;;6197776;28;20137;-84
2022/11/30 11:44:58;;;;;;;18.48;6.47;;;;;;;;;;6195610;28;20085;-84
2022/11/30 11:48:03;;;;;;;19.23;6.07;;;;;;;;;;6199224;28;20230;-85
2022/11/30 11:51:07;;;;;;;17.88;6.47;;;;;;;;;;6198629;28;20050;-84
2022/11/30 11:54:27;;;;;;;17.95;5.93;;;;;;;;;;6199517;28;20058;-83
2022/11/30 11:57:45;;;;;;;14.20;5.30;;;;;;;;;;6197789;28;20173;-86
2022/11/30 12:00:47;;;;;;;20.25;6.15;;;;;;;;;;6181633;28;20058;-87
2022/11/30 12:04:10;;;;;;;17.73;6.50;;;;;;;;;;6181352;28;20520;-85
2022/11/30 12:07:35;;;;;;;19.47;5.90;;;;;;;;;;6175363;28;20533;-86
2022/11/30 12:10:42;;;;;;;21.13;7.20;;;;;;;;;;6194246;28;20450;-86
2022/11/30 12:13:53;;;;;;;20.42;6.57;;;;;;;;;;6193609;28;20066;-86
2022/11/30 12:17:22;;;;;;;24.17;6.55;;;;;;;;;;6194469;28;20104;-85
2022/11/30 12:20:54;;;;;;;14.95;6.03;;;;;;;;;;6178908;28;20116;-86
2022/11/30 12:24:25;;;;;;;22.98;6.60;;;;;;;;;;6178774;28;20470;-86
2022/11/30 12:27:36;;;;;;;16.40;6.68;;;;;;;;;;6192839;28;20062;-87
2022/11/30 12:30:48;;;;;;;18.65;6.63;;;;;;;;;;6180969;28;20057;-86
2022/11/30 12:33:56;;;;;;;17.17;5.85;;;;;;;;;;6176092;28;20192;-87
2022/11/30 12:37:29;;;;;;;15.27;6.25;;;;;;;;;;6176308;28;20077;-86
2022/11/30 12:40:46;;;;;;;23.38;7.45;;;;;;;;;;6193527;28;20064;-86
2022/11/30 12:44:04;;;;;;;38.47;14.13;;;;;;;;;;6189935;28;20097;-86
2022/11/30 12:47:30;;;;;;;28.80;11.60;;;;;;;;;;6195857;28;20050;-89
2022/11/30 12:51:13;;;;;;;23.02;8.30;;;;;;;;;;6196851;28;20133;-86
2022/11/30 12:54:26;;;;;;;16.17;6.35;;;;;;;;;;6176891;28;20046;-85
2022/11/30 12:57:40;;;;;;;20.45;7.28;;;;;;;;;;6176954;28;20050;-86
2022/11/30 13:01:06;;;;;;;20.75;7.05;;;;;;;;;;6181133;28;20050;-85
2022/11/30 13:04:27;;;;;;;22.08;7.53;;;;;;;;;;6192923;28;20670;-86
2022/11/30 13:07:50;;;;;;;17.13;6.30;;;;;;;;;;6170246;28;20054;-85
2022/11/30 13:11:15;;;;;;;18.38;8.45;;;;;;;;;;6185875;28;20065;-86
2022/11/30 13:14:26;;;;;;;23.27;7.90;;;;;;;;;;6188565;28;20046;-87
2022/11/30 13:17:30;;;;;;;19.60;7.63;;;;;;;;;;6186653;28;20677;-86
2022/11/30 13:20:51;;;;;;;15.60;5.80;;;;;;;;;;6187491;28;20056;-86
2022/11/30 13:24:14;;;;;;;16.02;6.43;;;;;;;;;;6170015;28;20046;-87
2022/11/30 13:27:45;;;;;;;16.00;5.68;;;;;;;;;;6189419;28;20081;-87
2022/11/30 13:30:51;;;;;;;13.98;5.45;;;;;;;;;;6171031;28;20053;-87
2022/11/30 13:33:52;;;;;;;14.57;5.95;;;;;;;;;;6187078;28;20077;-86
2022/11/30 13:37:19;;;;;;;14.13;5.57;;;;;;;;;;6181802;28;20177;-86
2022/11/30 13:40:29;;;;;;;14.48;5.05;;;;;;;;;;6184866;28;20038;-86
2022/11/30 13:43:44;;;;;;;14.25;5.45;;;;;;;;;;6169571;28;20057;-87
2022/11/30 13:46:50;;;;;;;15.15;5.43;;;;;;;;;;6182428;28;20994;-86
2022/11/30 13:49:57;;;;;;;14.05;5.90;;;;;;;;;;6191511;28;20092;-87
2022/11/30 13:52:59;;;;;;;10.55;4.70;;;;;;;;;;6192818;28;20074;-86
2022/11/30 13:56:16;;;;;;;12.70;5.70;;;;;;;;;;6178128;28;20502;-86
2022/11/30 13:59:22;;;;;;;16.75;6.95;;;;;;;;;;6188274;28;20050;-87
2022/11/30 14:02:35;;;;;;;12.35;6.00;;;;;;;;;;6186834;28;20065;-86
2022/11/30 14:05:42;;;;;;;12.70;5.47;;;;;;;;;;6185700;28;20046;-86
2022/11/30 14:08:44;;;;;;;15.20;5.63;;;;;;;;;;6171248;28;20461;-87
2022/11/30 14:11:46;;;;;;;16.80;5.43;;;;;;;;;;6188000;28;20185;-86
2022/11/30 14:14:48;;;;;;;15.05;5.65;;;;;;;;;;6187499;28;20069;-87
2022/11/30 14:17:56;;;;;;;11.98;6.30;;;;;;;;;;6179410;28;20054;-87
2022/11/30 14:21:11;;;;;;;16.98;5.57;;;;;;;;;;6183132;28;20085;-86
2022/11/30 14:24:19;;;;;;;14.50;5.63;;;;;;;;;;6176304;28;20129;-86
2022/11/30 14:27:26;;;;;;;15.57;5.85;;;;;;;;;;6186656;28;20038;-86
2022/11/30 14:30:31;;;;;;;83.93;35.78;;;;;;;;;;6196344;28;20050;-86
2022/11/30 14:33:46;;;;;;;258.23;101.97;;;;;;;;;;6181747;28;20114;-86
2022/11/30 14:36:56;;;;;;;108.57;47.47;;;;;;;;;;6176999;28;20061;-86
2022/11/30 14:40:04;;;;;;;16.15;6.43;;;;;;;;;;6188392;28;20065;-86
2022/11/30 14:43:15;;;;;;;14.63;5.88;;;;;;;;;;6189180;28;20052;-84
2022/11/30 14:46:17;;;;;;;17.65;6.53;;;;;;;;;;6164202;28;20053;-86
2022/11/30 14:49:22;;;;;;;10.07;5.18;;;;;;;;;;6171791;28;20132;-85
2022/11/30 14:52:41;;;;;;;16.17;6.10;;;;;;;;;;6187210;28;20088;-86
2022/11/30 14:56:22;;;;;;;16.40;6.93;;;;;;;;;;6178388;28;20046;-85
2022/11/30 14:59:48;;;;;;;12.45;5.55;;;;;;;;;;6189252;28;20066;-86
2022/11/30 15:02:50;;;;;;;20.65;8.48;;;;;;;;;;6186083;28;20049;-86
2022/11/30 15:06:03;;;;;;;15.60;6.40;;;;;;;;;;6172186;28;20055;-85
2022/11/30 15:09:16;;;;;;;33.30;10.85;;;;;;;;;;6173238;28;20054;-86
2022/11/30 15:12:20;;;;;;;29.20;11.35;;;;;;;;;;6163978;28;20165;-85
2022/11/30 15:15:26;;;;;;;46.50;14.65;;;;;;;;;;6186813;28;20492;-86
2022/11/30 15:18:28;;;;;;;13.85;6.10;;;;;;;;;;6188151;28;20532;-86
2022/11/30 15:21:31;;;;;;;23.33;8.68;;;;;;;;;;6172031;28;20054;-85
2022/11/30 15:24:33;;;;;;;17.65;6.68;;;;;;;;;;6188652;28;20053;-85
2022/11/30 15:27:34;;;;;;;151.13;41.10;;;;;;;;;;6189522;28;20058;-85
2022/11/30 15:30:39;;;;;;;51.55;14.52;;;;;;;;;;6176505;28;20702;-86
2022/11/30 15:33:46;;;;;;;127.43;31.75;;;;;;;;;;6190107;28;20480;-86
2022/11/30 15:36:48;;;;;;;59.05;18.80;;;;;;;;;;6188727;28;20054;-85
2022/11/30 15:39:54;;;;;;;94.47;27.08;;;;;;;;;;6191372;28;20050;-87
2022/11/30 15:42:57;;;;;;;16.50;6.38;;;;;;;;;;6181069;28;20042;-87
2022/11/30 15:45:59;;;;;;;11.52;5.28;;;;;;;;;;6168702;28;20159;-86
2022/11/30 15:49:30;;;;;;;15.88;5.20;;;;;;;;;;6175537;28;20053;-85
2022/11/30 15:52:32;;;;;;;31.58;10.57;;;;;;;;;;6191744;28;20062;-84
2022/11/30 15:55:42;;;;;;;12.90;5.15;;;;;;;;;;6152288;28;20082;-86
2022/11/30 15:59:00;;;;;;;10.93;4.53;;;;;;;;;;6169687;28;20136;-85
2022/11/30 16:02:15;;;;;;;16.55;7.13;;;;;;;;;;6167009;28;20056;-86
2022/11/30 16:05:18;;;;;;;16.38;6.93;;;;;;;;;;6155155;28;20065;-86
2022/11/30 16:08:20;;;;;;;15.85;6.03;;;;;;;;;;6189802;28;20043;-86
2022/11/30 16:11:22;;;;;;;10.63;4.95;;;;;;;;;;6190811;28;20097;-86
2022/11/30 16:14:24;;;;;;;14.68;5.15;;;;;;;;;;6187602;28;20113;-86
2022/11/30 16:17:29;;;;;;;11.10;5.00;;;;;;;;;;6157333;28;20050;-86
2022/11/30 16:20:31;;;;;;;10.35;5.05;;;;;;;;;;6175226;28;20058;-86
2022/11/30 16:23:36;;;;;;;10.18;5.13;;;;;;;;;;6187768;28;20157;-86
2022/11/30 16:26:37;;;;;;;13.45;5.35;;;;;;;;;;6153509;28;20042;-85
2022/11/30 16:29:55;;;;;;;10.93;4.65;;;;;;;;;;6167484;28;20062;-85
2022/11/30 16:32:57;;;;;;;11.27;5.28;;;;;;;;;;6167896;28;20046;-86
2022/11/30 16:36:09;;;;;;;12.45;5.50;;;;;;;;;;6175827;28;20058;-86
2022/11/30 16:39:11;;;;;;;11.95;6.00;;;;;;;;;;6191816;28;20050;-86
2022/11/30 16:42:13;;;;;;;15.65;6.25;;;;;;;;;;6197772;28;20056;-86
2022/11/30 16:45:24;;;;;;;16.42;7.47;;;;;;;;;;6197664;28;20054;-86
2022/11/30 16:48:27;;;;;;;21.90;9.27;;;;;;;;;;6179055;28;20082;-86
2022/11/30 16:51:33;;;;;;;17.10;6.97;;;;;;;;;;6176192;28;20050;-86
2022/11/30 16:54:35;;;;;;;17.67;7.90;;;;;;;;;;6157940;28;20058;-86
2022/11/30 16:57:37;;;;;;;20.60;9.80;;;;;;;;;;6188035;28;20038;-86
2022/11/30 17:00:39;;;;;;;12.13;6.03;;;;;;;;;;6189006;28;20134;-87
2022/11/30 17:03:45;;;;;;;14.37;6.60;;;;;;;;;;6185814;28;20038;-86
2022/11/30 17:06:48;;;;;;;12.93;5.97;;;;;;;;;;6171077;28;20560;-86
2022/11/30 17:09:52;;;;;;;13.00;5.95;;;;;;;;;;6188153;28;20129;-88
2022/11/30 17:12:54;;;;;;;11.95;5.95;;;;;;;;;;6172005;28;20049;-86
2022/11/30 17:15:56;;;;;;;18.10;7.57;;;;;;;;;;6188114;28;20106;-87
2022/11/30 17:18:57;;;;;;;11.85;5.90;;;;;;;;;;6143392;28;20053;-86
2022/11/30 17:21:59;;;;;;;12.77;4.88;;;;;;;;;;6175144;28;20054;-87
2022/11/30 17:25:03;;;;;;;15.05;6.30;;;;;;;;;;6184022;28;20053;-85
2022/11/30 17:28:05;;;;;;;14.00;5.60;;;;;;;;;;6196903;28;20081;-86
2022/11/30 17:31:09;;;;;;;13.45;6.43;;;;;;;;;;6196424;28;20046;-87
2022/11/30 17:34:12;;;;;;;16.58;5.95;;;;;;;;;;6177083;28;20057;-86
2022/11/30 17:37:14;;;;;;;16.08;6.88;;;;;;;;;;6190005;28;20138;-86
2022/11/30 17:40:16;;;;;;;13.85;6.45;;;;;;;;;;6194650;28;20080;-86
2022/11/30 17:43:17;;;;;;;16.75;5.78;;;;;;;;;;6196647;28;20054;-87
2022/11/30 17:46:21;;;;;;;13.15;6.05;;;;;;;;;;6175764;28;20595;-85
2022/11/30 17:49:23;;;;;;;;;;;;;;;;;;6197775;28;20561;-87
2022/11/30 17:52:24;;;;;;;16.17;6.00;;;;;;;;;;6196915;28;19933;-86
2022/11/30 17:55:26;;;;;;;13.40;6.25;;;;;;;;;;6180396;28;20061;-87
2022/11/30 17:58:28;;;;;;;13.05;5.35;;;;;;;;;;6179635;28;20057;-85
2022/11/30 18:01:36;;;;;;;15.75;6.78;;;;;;;;;;6198339;28;20042;-86
2022/11/30 18:04:38;;;;;;;15.05;6.25;;;;;;;;;;6197038;28;20096;-86
2022/11/30 18:07:40;;;;;;;30.15;11.57;;;;;;;;;;6178533;28;20124;-86
2022/11/30 18:10:46;;;;;;;27.52;9.23;;;;;;;;;;6194217;28;20049;-85
2022/11/30 18:13:52;;;;;;;32.28;11.90;;;;;;;;;;6186630;28;20077;-86
2022/11/30 18:16:54;;;;;;;18.20;7.80;;;;;;;;;;6185341;28;20042;-86